Time;durP1;ratioP1;P1;durP2;ratioP2;P2;SDS_P1;SDS_P2;PMS_P1;PMS_P2;Temp;Humidity;BMP_temperature;BMP_pressure;BME280_temperature;BME280_humidity;BME280_pressure;Samples;Min_cycle;Max_cycle;Signal;HPM_P1;HPM_P2
2021/10/08 00:01:33;;;;;;;0.93;0.82;;;;;;;13.53;81.96;100204.06;4992941;28;20042;-89
2021/10/08 00:04:02;;;;;;;1.38;0.90;;;;;;;13.56;81.30;100199.50;4993086;28;20394;-89
2021/10/08 00:06:31;;;;;;;7.13;1.05;;;;;;;13.60;80.70;100205.38;4992499;28;20081;-88
2021/10/08 00:08:58;;;;;;;1.30;0.90;;;;;;;13.67;80.74;100203.22;4992798;28;20061;-89
2021/10/08 00:11:26;;;;;;;1.67;0.77;;;;;;;13.58;80.64;100213.34;4992868;28;20057;-88
2021/10/08 00:13:54;;;;;;;1.88;1.00;;;;;;;13.57;80.10;100222.13;4993167;28;20046;-88
2021/10/08 00:16:21;;;;;;;1.65;1.08;;;;;;;13.52;80.84;100224.19;4992585;28;20050;-88
2021/10/08 00:18:48;;;;;;;1.13;0.70;;;;;;;13.60;80.75;100221.94;4996561;28;20039;-89
2021/10/08 00:21:16;;;;;;;3.15;0.75;;;;;;;13.63;80.63;100221.75;4996626;28;20039;-88
2021/10/08 00:23:43;;;;;;;2.15;0.90;;;;;;;13.55;81.33;100228.41;4996363;28;20472;-88
2021/10/08 00:26:10;;;;;;;2.05;1.33;;;;;;;13.53;81.54;100231.13;4996575;28;20042;-88
2021/10/08 00:28:37;;;;;;;2.17;0.90;;;;;;;13.56;80.98;100233.53;4995683;28;20092;-88
2021/10/08 00:31:05;;;;;;;1.85;0.88;;;;;;;13.52;81.54;100223.34;4996652;28;20543;-88
2021/10/08 00:33:31;;;;;;;1.20;0.80;;;;;;;13.53;81.66;100225.03;4996153;28;20069;-88
2021/10/08 00:35:58;;;;;;;4.68;0.98;;;;;;;13.45;82.53;100224.69;4995158;28;20046;-89
2021/10/08 00:38:26;;;;;;;3.33;0.90;;;;;;;13.38;82.20;100226.84;4996261;28;20098;-88
2021/10/08 00:40:53;;;;;;;2.78;2.25;;;;;;;13.58;81.37;100222.97;4996691;28;20049;-88
2021/10/08 00:43:21;;;;;;;2.95;1.00;;;;;;;13.56;80.98;100223.06;4994715;28;20089;-88
2021/10/08 00:45:49;;;;;;;1.05;0.95;;;;;;;13.54;81.17;100222.34;4995559;28;20050;-88
2021/10/08 00:48:17;;;;;;;1.65;0.93;;;;;;;13.56;81.03;100225.69;5012001;28;20057;-88
2021/10/08 00:50:49;;;;;;;0.60;0.60;;;;;;;13.57;80.98;100234.38;4995528;28;20062;-88
2021/10/08 00:53:17;;;;;;;2.58;0.80;;;;;;;13.53;80.92;100228.50;4997350;28;20039;-88
2021/10/08 00:55:51;;;;;;;2.00;0.95;;;;;;;13.52;81.49;100229.41;4995347;28;20042;-88
2021/10/08 00:58:20;;;;;;;3.03;1.55;;;;;;;13.54;81.87;100224.94;4995331;28;20069;-88
2021/10/08 01:00:49;;;;;;;0.70;0.70;;;;;;;13.52;81.83;100229.41;4996386;28;20492;-89
2021/10/08 01:03:18;;;;;;;4.72;1.95;;;;;;;13.51;82.17;100233.00;4996879;28;20180;-88
2021/10/08 01:05:46;;;;;;;3.28;0.90;;;;;;;13.46;82.58;100228.97;4995040;28;20057;-88
2021/10/08 01:08:13;;;;;;;0.93;0.90;;;;;;;13.55;82.58;100233.66;4995124;28;20124;-87
2021/10/08 01:10:42;;;;;;;4.25;1.00;;;;;;;13.53;82.25;100233.75;4995502;28;20042;-87
2021/10/08 01:13:13;;;;;;;3.53;0.88;;;;;;;13.50;83.01;100228.69;4978510;28;20042;-87
2021/10/08 01:15:41;;;;;;;2.38;0.88;;;;;;;13.54;82.44;100229.34;4994327;28;20046;-87
2021/10/08 01:18:08;;;;;;;1.58;1.13;;;;;;;13.42;82.97;100228.31;4993248;28;20047;-88
2021/10/08 01:20:36;;;;;;;1.73;1.33;;;;;;;13.48;82.75;100243.66;4994241;28;20042;-87
2021/10/08 01:23:14;;;;;;;0.80;0.80;;;;;;;13.49;82.54;100239.28;4993906;28;20053;-88
2021/10/08 01:25:51;;;;;;;1.85;0.80;;;;;;;13.39;83.35;100239.00;4994302;28;20126;-88
2021/10/08 01:28:23;;;;;;;2.88;0.90;;;;;;;13.44;83.41;100242.16;4992941;28;20061;-87
2021/10/08 01:30:51;;;;;;;1.20;1.10;;;;;;;13.42;84.10;100244.03;4978091;28;20054;-88
2021/10/08 01:33:24;;;;;;;1.00;1.00;;;;;;;13.35;84.09;100256.66;4993861;28;20047;-87
2021/10/08 01:35:54;;;;;;;2.35;0.90;;;;;;;13.42;83.73;100251.88;4994254;28;20517;-88
2021/10/08 01:38:21;;;;;;;1.35;0.82;;;;;;;13.40;84.06;100243.28;4995319;28;20038;-87
2021/10/08 01:40:48;;;;;;;1.38;0.98;;;;;;;13.36;84.38;100250.47;4993913;28;20050;-88
2021/10/08 01:43:17;;;;;;;2.15;1.08;;;;;;;13.44;83.74;100255.25;4995260;28;20042;-87
2021/10/08 01:45:47;;;;;;;1.75;1.00;;;;;;;13.40;83.94;100256.38;4993770;28;20413;-88
2021/10/08 01:48:21;;;;;;;;;;;;;;;13.51;83.17;100253.94;4994675;28;20070;-88
2021/10/08 01:50:48;;;;;;;2.03;1.45;;;;;;;13.55;82.92;100250.19;4993316;28;20377;-88
2021/10/08 01:53:18;;;;;;;4.20;2.45;;;;;;;13.51;83.38;100251.31;4993662;28;20046;-88
2021/10/08 01:55:47;;;;;;;1.10;1.00;;;;;;;13.33;83.86;100255.91;4993403;28;20043;-88
2021/10/08 01:58:14;;;;;;;1.80;1.00;;;;;;;13.41;83.69;100255.44;4993914;28;20077;-88
2021/10/08 02:00:44;;;;;;;2.28;1.20;;;;;;;13.40;83.98;100255.53;4994783;28;20140;-88
2021/10/08 02:03:19;;;;;;;1.77;1.30;;;;;;;13.56;82.55;100249.25;4993719;28;20456;-88
2021/10/08 02:05:46;;;;;;;3.05;1.23;;;;;;;13.59;82.28;100261.34;4993311;28;20049;-88
2021/10/08 02:08:15;;;;;;;3.30;1.13;;;;;;;13.51;82.67;100259.19;4993819;28;20065;-87
2021/10/08 02:10:42;;;;;;;4.50;1.20;;;;;;;13.47;82.67;100252.44;4993376;28;20052;-86
2021/10/08 02:13:09;;;;;;;0.90;0.90;;;;;;;13.49;82.25;100265.47;4993384;28;20042;-88
2021/10/08 02:15:39;;;;;;;5.07;1.23;;;;;;;13.45;82.94;100256.94;4993450;28;20125;-88
2021/10/08 02:18:06;;;;;;;1.98;1.35;;;;;;;13.43;83.06;100256.19;4993001;28;20050;-87
2021/10/08 02:20:34;;;;;;;2.88;1.02;;;;;;;13.46;82.97;100256.00;4993479;28;20049;-88
2021/10/08 02:23:01;;;;;;;2.75;1.33;;;;;;;13.43;83.30;100258.81;4992904;28;20133;-88
2021/10/08 02:25:28;;;;;;;2.40;1.42;;;;;;;13.47;83.06;100255.06;4993286;28;20508;-89
2021/10/08 02:27:56;;;;;;;1.73;1.20;;;;;;;13.51;83.23;100269.66;4992635;28;20133;-88
2021/10/08 02:30:23;;;;;;;1.98;1.10;;;;;;;13.59;82.54;100259.56;4993233;28;20045;-87
2021/10/08 02:32:50;;;;;;;5.15;1.35;;;;;;;13.46;82.86;100265.63;4993955;28;20073;-87
2021/10/08 02:35:17;;;;;;;4.03;1.20;;;;;;;13.44;83.13;100273.59;4994303;28;20516;-88
2021/10/08 02:37:44;;;;;;;1.83;1.05;;;;;;;13.55;82.80;100271.16;4993172;28;20053;-89
2021/10/08 02:40:11;;;;;;;3.03;1.20;;;;;;;13.57;82.54;100263.19;4992327;28;20042;-88
2021/10/08 02:42:38;;;;;;;4.20;1.40;;;;;;;13.58;82.26;100270.09;4990165;28;20042;-87
2021/10/08 02:45:06;;;;;;;1.98;1.30;;;;;;;13.58;81.78;100265.72;4983292;28;20045;-88
2021/10/08 02:47:33;;;;;;;1.90;1.17;;;;;;;13.58;81.21;100265.72;5001925;28;20133;-88
2021/10/08 02:50:00;;;;;;;1.75;1.20;;;;;;;13.60;80.83;100269.09;4993468;28;20038;-88
2021/10/08 02:52:27;;;;;;;2.70;1.70;;;;;;;13.61;81.12;100268.16;4992900;28;20100;-89
2021/10/08 02:55:08;;;;;;;1.80;1.17;;;;;;;13.59;81.50;100261.34;4992684;28;20113;-86
2021/10/08 02:57:39;;;;;;;1.67;1.23;;;;;;;13.64;80.56;100261.91;4993839;28;20101;-88
2021/10/08 03:00:09;;;;;;;2.28;1.30;;;;;;;13.70;80.34;100276.38;4992389;28;20069;-88
2021/10/08 03:02:36;;;;;;;2.22;1.40;;;;;;;13.63;80.09;100274.16;4992410;28;20046;-89
2021/10/08 03:05:05;;;;;;;1.33;1.00;;;;;;;13.59;80.63;100282.28;4992136;28;20077;-88
2021/10/08 03:07:33;;;;;;;3.58;1.08;;;;;;;13.67;80.22;100289.66;4992230;28;20042;-87
2021/10/08 03:10:00;;;;;;;2.45;1.30;;;;;;;13.66;80.41;100275.72;4992257;28;20112;-87
2021/10/08 03:12:27;;;;;;;7.32;1.40;;;;;;;13.73;80.05;100281.41;4992040;28;20046;-87
2021/10/08 03:14:53;;;;;;;3.35;1.48;;;;;;;13.72;80.24;100282.34;4992170;28;20453;-89
2021/10/08 03:17:21;;;;;;;4.97;1.77;;;;;;;13.71;80.09;100285.91;4993619;28;20054;-88
2021/10/08 03:19:48;;;;;;;3.95;1.63;;;;;;;13.73;79.81;100278.78;4993566;28;20065;-89
2021/10/08 03:22:15;;;;;;;2.05;1.35;;;;;;;13.66;80.74;100280.13;4994593;28;20031;-88
2021/10/08 03:24:44;;;;;;;3.38;1.30;;;;;;;13.66;80.70;100280.13;4993768;28;20054;-89
2021/10/08 03:27:11;;;;;;;3.42;1.40;;;;;;;13.80;79.91;100285.34;4994463;28;20042;-88
2021/10/08 03:29:37;;;;;;;3.13;1.20;;;;;;;13.69;80.13;100278.16;4993142;28;20046;-88
2021/10/08 03:32:05;;;;;;;1.55;1.23;;;;;;;13.80;79.69;100285.34;4992726;28;20077;-88
2021/10/08 03:34:35;;;;;;;2.80;1.73;;;;;;;13.79;79.49;100288.88;4992763;28;20046;-88
2021/10/08 03:37:06;;;;;;;1.98;1.45;;;;;;;13.78;79.57;100285.44;4993211;28;20433;-88
2021/10/08 03:39:37;;;;;;;2.58;1.42;;;;;;;13.82;79.06;100283.47;4992917;28;20051;-88
2021/10/08 03:42:05;;;;;;;2.78;1.13;;;;;;;13.78;79.10;100285.44;4993410;28;20042;-88
2021/10/08 03:44:37;;;;;;;2.25;1.25;;;;;;;13.79;78.70;100287.09;4994309;28;20038;-88
2021/10/08 03:47:33;;;;;;;3.13;1.60;;;;;;;13.84;78.58;100278.97;5014128;23;20098;-94
2021/10/08 03:49:56;;;;;;;5.82;1.90;;;;;;;13.91;78.39;100282.91;5031577;28;20439;-93
2021/10/08 03:52:23;;;;;;;4.40;1.52;;;;;;;13.97;77.99;100292.97;5000886;28;20053;-95
2021/10/08 03:54:50;;;;;;;3.72;1.35;;;;;;;13.84;78.50;100284.19;5019786;28;20037;-95
2021/10/08 03:57:17;;;;;;;2.65;2.03;;;;;;;13.89;78.62;100285.59;5000272;28;20049;-93
2021/10/08 03:59:43;;;;;;;5.25;1.73;;;;;;;13.85;78.48;100283.28;5001508;28;20128;-93
2021/10/08 04:02:11;;;;;;;3.58;1.30;;;;;;;13.88;78.65;100280.44;5000233;28;20046;-93
2021/10/08 04:04:39;;;;;;;1.40;1.20;;;;;;;13.94;78.32;100287.09;5016462;28;20046;-93
2021/10/08 04:07:07;;;;;;;6.95;1.75;;;;;;;13.91;77.89;100290.75;5000907;28;20042;-93
2021/10/08 04:09:37;;;;;;;4.72;2.80;;;;;;;13.93;78.07;100293.28;5018726;28;20125;-91
2021/10/08 04:12:04;;;;;;;3.03;1.52;;;;;;;13.94;78.07;100292.31;5004220;28;20042;-86
2021/10/08 04:14:31;;;;;;;5.13;1.50;;;;;;;14.00;77.79;100299.78;4995911;28;20434;-86
2021/10/08 04:17:00;;;;;;;1.60;1.30;;;;;;;13.99;77.33;100298.97;4997271;28;20046;-85
2021/10/08 04:19:27;;;;;;;3.33;1.40;;;;;;;14.00;77.58;100303.25;4997725;28;20043;-86
2021/10/08 04:21:55;;;;;;;4.63;1.40;;;;;;;13.97;77.89;100300.84;4991125;28;20086;-84
2021/10/08 04:24:22;;;;;;;2.67;1.50;;;;;;;13.92;78.02;100300.28;5012526;28;20134;-85
2021/10/08 04:26:50;;;;;;;7.25;1.50;;;;;;;13.86;78.05;100309.38;4997739;28;20046;-86
2021/10/08 04:29:16;;;;;;;5.65;1.42;;;;;;;13.87;78.32;100299.75;5008605;28;20042;-85
2021/10/08 04:31:44;;;;;;;3.15;1.60;;;;;;;13.88;78.44;100293.56;4995572;28;20101;-86
2021/10/08 04:34:12;;;;;;;1.40;1.30;;;;;;;13.94;78.34;100280.06;4995601;28;20038;-87
2021/10/08 04:36:40;;;;;;;5.82;1.50;;;;;;;13.96;79.22;100290.47;4997835;28;20045;-88
2021/10/08 04:39:09;;;;;;;4.15;1.60;;;;;;;13.94;79.54;100293.16;4995658;28;20042;-88
2021/10/08 04:41:37;;;;;;;8.40;1.92;;;;;;;13.93;80.14;100296.72;4998535;28;20050;-90
2021/10/08 04:44:06;;;;;;;4.72;1.45;;;;;;;13.86;79.02;100295.44;5006685;28;20042;-87
2021/10/08 04:46:34;;;;;;;1.58;1.48;;;;;;;13.81;78.66;100293.09;4999144;28;20133;-87
2021/10/08 04:49:02;;;;;;;3.28;1.58;;;;;;;13.85;78.80;100284.13;4997989;28;20054;-90
2021/10/08 04:51:35;;;;;;;3.30;1.60;;;;;;;13.85;78.26;100281.50;5002096;28;20046;-90
2021/10/08 04:54:03;;;;;;;2.58;1.48;;;;;;;13.92;78.26;100281.94;4992818;28;20034;-90
2021/10/08 04:56:33;;;;;;;1.88;1.38;;;;;;;13.86;78.70;100290.19;5012805;28;20034;-89
2021/10/08 04:59:01;;;;;;;4.38;1.50;;;;;;;13.92;78.10;100291.59;4995185;28;20042;-87
2021/10/08 05:01:28;;;;;;;2.90;1.60;;;;;;;14.01;77.56;100281.38;5010770;28;20065;-86
2021/10/08 05:03:56;;;;;;;1.95;1.60;;;;;;;14.07;77.39;100280.16;5015354;28;20037;-87
2021/10/08 05:06:23;;;;;;;3.28;1.80;;;;;;;13.96;77.95;100287.84;5019628;28;20037;-89
2021/10/08 05:08:55;;;;;;;2.30;1.50;;;;;;;13.98;78.58;100288.59;5017504;28;20030;-89
2021/10/08 05:11:23;;;;;;;3.28;2.17;;;;;;;14.02;77.78;100287.47;5018979;28;20043;-89
2021/10/08 05:13:50;;;;;;;7.63;1.58;;;;;;;13.93;78.31;100280.16;5006403;28;20047;-89
2021/10/08 05:16:17;;;;;;;3.08;1.38;;;;;;;13.97;78.24;100277.25;5000651;28;20042;-89
2021/10/08 05:18:44;;;;;;;2.80;2.03;;;;;;;14.05;78.52;100269.72;5014560;28;20039;-88
2021/10/08 05:21:15;;;;;;;2.65;1.35;;;;;;;14.01;78.84;100247.31;4997907;28;20393;-88
2021/10/08 05:23:45;;;;;;;8.55;2.17;;;;;;;13.94;81.32;100261.72;5000742;28;20466;-89
2021/10/08 05:26:12;;;;;;;2.92;1.60;;;;;;;13.87;82.31;100260.44;4995039;28;20046;-93
2021/10/08 05:28:39;;;;;;;2.47;1.77;;;;;;;13.94;81.02;100256.47;5000076;28;20045;-92
2021/10/08 05:31:07;;;;;;;4.18;1.52;;;;;;;13.88;80.83;100249.00;5006262;28;20527;-88
2021/10/08 05:33:34;;;;;;;4.45;1.67;;;;;;;13.99;80.22;100254.41;4998118;28;20058;-87
2021/10/08 05:36:01;;;;;;;2.08;1.60;;;;;;;13.96;81.53;100249.38;4999433;28;20066;-91
2021/10/08 05:38:29;;;;;;;3.75;1.60;;;;;;;13.91;82.08;100266.34;5002442;28;20141;-91
2021/10/08 05:40:56;;;;;;;3.80;1.70;;;;;;;13.92;82.92;100257.53;5009097;28;20168;-86
2021/10/08 05:43:24;;;;;;;2.15;1.40;;;;;;;13.83;85.07;100256.31;4995285;28;20046;-96
2021/10/08 05:45:55;;;;;;;5.20;1.70;;;;;;;13.89;84.91;100250.69;4996135;28;20089;-92
2021/10/08 05:48:23;;;;;;;2.92;2.13;;;;;;;13.86;86.19;100261.38;5001611;28;20081;-92
2021/10/08 05:50:50;;;;;;;4.07;1.85;;;;;;;13.82;85.81;100265.13;5003623;28;20838;-93
2021/10/08 05:53:18;;;;;;;3.75;2.05;;;;;;;13.82;87.27;100267.75;5000120;28;20050;-86
2021/10/08 05:55:45;;;;;;;5.30;1.90;;;;;;;13.75;87.67;100272.53;4996104;28;20043;-94
2021/10/08 05:58:14;;;;;;;4.57;2.85;;;;;;;13.84;86.35;100265.84;4997133;28;20445;-94
2021/10/08 06:00:49;;;;;;;6.63;1.63;;;;;;;13.87;86.10;100263.91;4998515;28;20045;-95
2021/10/08 06:03:18;;;;;;;3.28;1.80;;;;;;;13.95;86.08;100271.25;4982200;28;20050;-90
2021/10/08 06:05:45;;;;;;;4.65;2.30;;;;;;;13.98;86.01;100278.09;4992262;28;20085;-92
2021/10/08 06:08:12;;;;;;;3.03;1.90;;;;;;;13.96;86.32;100283.44;5005524;28;20042;-92
2021/10/08 06:10:46;;;;;;;4.55;1.88;;;;;;;13.85;89.22;100284.13;5006164;28;20046;-87
2021/10/08 06:13:15;;;;;;;3.13;2.00;;;;;;;13.98;88.93;100273.69;5017506;28;20129;-90
2021/10/08 06:15:42;;;;;;;3.97;1.80;;;;;;;14.16;88.16;100277.75;5001555;28;20038;-93
2021/10/08 06:18:10;;;;;;;3.55;1.80;;;;;;;14.03;88.12;100270.78;5003068;28;20046;-91
2021/10/08 06:20:39;;;;;;;7.18;2.05;;;;;;;14.21;87.43;100272.22;4997482;28;20074;-87
2021/10/08 06:23:10;;;;;;;3.45;1.80;;;;;;;14.24;87.06;100268.56;5009493;28;20128;-92
2021/10/08 06:25:37;;;;;;;4.32;1.83;;;;;;;14.15;87.82;100283.09;4994552;28;20158;-88
2021/10/08 06:28:06;;;;;;;3.42;1.63;;;;;;;14.12;88.47;100280.69;4987201;28;20117;-86
2021/10/08 06:30:34;;;;;;;4.65;1.80;;;;;;;14.10;88.88;100290.41;4991509;28;20077;-89
2021/10/08 06:33:01;;;;;;;5.65;1.90;;;;;;;14.08;89.77;100287.91;4998114;28;20047;-88
2021/10/08 06:35:32;;;;;;;3.90;2.13;;;;;;;14.03;90.61;100289.13;4992647;28;20073;-86
2021/10/08 06:37:59;;;;;;;5.07;2.20;;;;;;;13.89;92.32;100295.22;4991959;28;20043;-86
2021/10/08 06:40:28;;;;;;;2.42;1.98;;;;;;;13.88;93.03;100299.63;4994445;28;20105;-85
2021/10/08 06:42:57;;;;;;;7.05;1.80;;;;;;;13.92;92.12;100297.66;5009731;28;20038;-84
2021/10/08 06:45:38;;;;;;;3.90;1.80;;;;;;;13.89;91.76;100305.72;4999734;28;20509;-84
2021/10/08 06:48:08;;;;;;;3.97;1.95;;;;;;;13.96;91.87;100306.19;4991603;28;20074;-84
2021/10/08 06:50:37;;;;;;;4.28;2.17;;;;;;;13.97;91.36;100303.47;4991824;28;20097;-84
2021/10/08 06:53:05;;;;;;;4.75;2.00;;;;;;;13.93;91.19;100312.44;4993242;28;20141;-85
2021/10/08 06:55:33;;;;;;;5.63;2.22;;;;;;;14.01;91.25;100309.34;4996583;28;20627;-84
2021/10/08 06:58:02;;;;;;;5.68;2.28;;;;;;;13.84;93.21;100313.84;4992847;28;20456;-85
2021/10/08 07:00:30;;;;;;;6.63;2.72;;;;;;;13.95;92.43;100307.94;4991612;28;20046;-84
2021/10/08 07:03:02;;;;;;;6.25;2.80;;;;;;;13.88;92.82;100319.75;4992487;28;20073;-84
2021/10/08 07:05:40;;;;;;;3.95;2.80;;;;;;;13.87;93.50;100313.69;4992482;28;20038;-84
2021/10/08 07:08:07;;;;;;;6.60;2.67;;;;;;;14.06;92.17;100321.25;5001595;28;20030;-83
2021/10/08 07:10:40;;;;;;;4.30;2.08;;;;;;;14.03;91.94;100324.03;5007845;28;20030;-85
2021/10/08 07:13:06;;;;;;;5.78;2.85;;;;;;;14.03;91.79;100323.19;5013913;28;20044;-87
2021/10/08 07:15:33;;;;;;;3.92;2.33;;;;;;;14.07;92.03;100322.09;5010365;28;20033;-80
2021/10/08 07:18:01;;;;;;;8.52;2.67;;;;;;;14.10;91.23;100325.31;5016064;28;20049;-84
2021/10/08 07:20:29;;;;;;;5.20;2.42;;;;;;;14.11;91.38;100329.66;5004055;28;20050;-83
2021/10/08 07:22:58;;;;;;;7.47;2.85;;;;;;;14.22;90.67;100333.34;5005108;28;20497;-82
2021/10/08 07:25:28;;;;;;;3.83;2.60;;;;;;;14.22;91.33;100341.22;4991000;28;20041;-86
2021/10/08 07:27:55;;;;;;;5.05;2.53;;;;;;;14.36;91.25;100342.03;4987802;28;20116;-85
2021/10/08 07:30:22;;;;;;;3.30;2.38;;;;;;;14.48;90.50;100343.03;4992761;28;20046;-83
2021/10/08 07:32:51;;;;;;;5.78;2.30;;;;;;;14.37;89.82;100343.69;4986788;28;20046;-81
2021/10/08 07:35:19;;;;;;;5.72;3.08;;;;;;;14.42;90.15;100340.78;4986196;28;20082;-87
2021/10/08 07:37:48;;;;;;;6.68;3.03;;;;;;;14.41;90.92;100344.34;4988179;28;20038;-80
2021/10/08 07:40:16;;;;;;;5.72;3.30;;;;;;;14.44;90.66;100344.16;4992359;28;20070;-81
2021/10/08 07:42:43;;;;;;;3.60;3.03;;;;;;;14.60;91.38;100333.56;4991972;28;20035;-82
2021/10/08 07:45:12;;;;;;;4.68;2.63;;;;;;;14.53;91.27;100348.00;4990121;28;20042;-81
2021/10/08 07:47:39;;;;;;;2.20;2.00;;;;;;;14.45;90.92;100347.63;4992154;28;20043;-82
2021/10/08 07:50:07;;;;;;;4.85;2.10;;;;;;;14.39;90.00;100348.88;4991736;28;20444;-81
2021/10/08 07:52:35;;;;;;;5.60;2.63;;;;;;;14.51;87.50;100347.25;4989429;28;20089;-80
2021/10/08 07:55:05;;;;;;;3.95;2.67;;;;;;;14.65;88.10;100344.59;4991574;28;20497;-80
2021/10/08 07:57:34;;;;;;;8.60;2.60;;;;;;;14.81;86.22;100354.94;4992166;28;20046;-82
2021/10/08 08:00:08;;;;;;;5.45;2.40;;;;;;;14.67;85.85;100353.19;4991686;28;20034;-79
2021/10/08 08:02:39;;;;;;;6.80;3.20;;;;;;;14.88;85.29;100357.03;4988920;28;20061;-81
2021/10/08 08:05:07;;;;;;;5.93;3.03;;;;;;;14.93;85.06;100362.00;4991880;28;20038;-82
2021/10/08 08:07:33;;;;;;;10.85;2.45;;;;;;;15.18;83.25;100366.44;4991381;28;20042;-82
2021/10/08 08:10:00;;;;;;;4.60;2.70;;;;;;;15.10;83.57;100368.75;4991413;28;20038;-82
2021/10/08 08:12:27;;;;;;;5.65;2.80;;;;;;;15.12;82.83;100364.22;4991545;28;20085;-79
2021/10/08 08:14:54;;;;;;;7.43;3.78;;;;;;;15.16;82.27;100369.16;4991157;28;20098;-81
2021/10/08 08:17:21;;;;;;;4.00;2.60;;;;;;;15.39;79.54;100364.13;4991336;28;20034;-80
2021/10/08 08:19:49;;;;;;;2.90;2.40;;;;;;;15.51;77.77;100365.94;4991527;28;20038;-83
2021/10/08 08:22:16;;;;;;;4.15;2.83;;;;;;;15.77;75.99;100358.09;4990635;28;20039;-79
2021/10/08 08:24:43;;;;;;;4.03;2.97;;;;;;;15.64;77.34;100366.78;4991337;28;20045;-80
2021/10/08 08:27:10;;;;;;;5.75;3.00;;;;;;;15.62;78.03;100366.03;4992081;28;20042;-79
2021/10/08 08:29:37;;;;;;;11.85;4.28;;;;;;;15.83;76.49;100369.00;4991299;28;20440;-79
2021/10/08 08:32:04;;;;;;;5.97;3.17;;;;;;;16.03;74.89;100370.22;4988279;28;20410;-78
2021/10/08 08:34:31;;;;;;;3.53;2.90;;;;;;;16.09;74.47;100368.97;4990738;28;20497;-80
2021/10/08 08:36:58;;;;;;;3.40;3.10;;;;;;;16.07;75.86;100368.22;4991313;28;20049;-79
2021/10/08 08:39:25;;;;;;;5.38;3.13;;;;;;;15.97;75.35;100371.47;4994445;28;20489;-80
2021/10/08 08:41:51;;;;;;;4.88;2.92;;;;;;;16.06;73.57;100364.75;4995613;28;20046;-82
2021/10/08 08:44:18;;;;;;;4.40;2.97;;;;;;;15.82;74.24;100362.06;4994459;28;20046;-83
2021/10/08 08:46:45;;;;;;;3.80;2.70;;;;;;;16.00;73.52;100364.34;4995070;28;20046;-82
2021/10/08 08:49:12;;;;;;;3.85;2.72;;;;;;;15.89;73.77;100371.19;4995197;28;20116;-85
2021/10/08 08:51:39;;;;;;;3.80;3.13;;;;;;;15.91;72.94;100368.44;5008808;28;20496;-85
2021/10/08 08:54:08;;;;;;;2.80;2.25;;;;;;;15.77;72.73;100363.34;4991096;28;20050;-83
2021/10/08 08:56:36;;;;;;;3.78;2.42;;;;;;;16.19;69.19;100362.94;4995371;28;20039;-84
2021/10/08 08:59:09;;;;;;;4.00;2.42;;;;;;;16.55;67.47;100369.09;4994761;28;20054;-86
2021/10/08 09:02:02;;;;;;;6.15;3.00;;;;;;;16.42;67.64;100371.78;4995325;28;20144;-82
2021/10/08 09:04:32;;;;;;;4.05;3.28;;;;;;;16.39;65.02;100376.44;4993502;28;20057;-82
2021/10/08 09:06:59;;;;;;;4.18;3.00;;;;;;;16.77;64.99;100369.22;4995055;28;20045;-85
2021/10/08 09:09:27;;;;;;;3.10;2.30;;;;;;;16.49;64.42;100372.19;4997072;28;20038;-84
2021/10/08 09:11:55;;;;;;;3.83;2.40;;;;;;;16.70;63.43;100365.34;4994680;28;20034;-86
2021/10/08 09:14:29;;;;;;;3.95;2.80;;;;;;;16.52;64.84;100379.03;4994461;28;20097;-85
2021/10/08 09:17:06;;;;;;;9.82;3.22;;;;;;;16.93;63.70;100374.19;4995220;28;20046;-84
2021/10/08 09:19:56;;;;;;;6.20;2.80;;;;;;;16.97;63.70;100375.66;4996451;28;20085;-88
2021/10/08 09:22:32;;;;;;;4.38;2.85;;;;;;;16.56;64.64;100388.38;4998687;28;20046;-85
2021/10/08 09:25:12;;;;;;;3.30;2.53;;;;;;;16.33;64.94;100382.97;5006815;28;20052;-82
2021/10/08 09:27:40;;;;;;;3.10;2.20;;;;;;;16.85;63.32;100381.84;5003375;28;20044;-86
2021/10/08 09:30:11;;;;;;;2.35;2.15;;;;;;;16.49;63.00;100388.81;4999990;28;20038;-86
2021/10/08 09:32:56;;;;;;;6.43;2.20;;;;;;;16.92;63.21;100382.22;4996845;28;20034;-84
2021/10/08 09:35:25;;;;;;;3.63;2.40;;;;;;;16.68;63.60;100390.97;4997811;28;20038;-89
2021/10/08 09:37:54;;;;;;;6.10;2.63;;;;;;;16.57;65.00;100396.16;4994772;28;20065;-86
2021/10/08 09:40:44;;;;;;;4.03;2.75;;;;;;;16.41;66.16;100406.13;4996645;28;20038;-86
2021/10/08 09:43:27;;;;;;;8.00;3.30;;;;;;;17.03;61.73;100383.09;4995026;28;20045;-85
2021/10/08 09:45:57;;;;;;;3.25;2.97;;;;;;;17.34;61.78;100393.13;4995018;28;20416;-86
2021/10/08 09:48:46;;;;;;;4.78;2.50;;;;;;;16.74;63.63;100403.69;4994384;28;20398;-86
2021/10/08 09:51:16;;;;;;;8.82;3.40;;;;;;;17.08;63.33;100401.19;4993507;28;20050;-84
2021/10/08 09:53:46;;;;;;;4.65;2.95;;;;;;;17.11;63.33;100400.97;4996001;28;20046;-84
2021/10/08 09:56:39;;;;;;;3.60;2.80;;;;;;;16.43;64.72;100405.03;4999247;28;20057;-85
2021/10/08 09:59:10;;;;;;;3.90;2.97;;;;;;;16.96;64.95;100397.69;4995750;28;20043;-84
2021/10/08 10:01:39;;;;;;;3.38;2.72;;;;;;;17.44;62.46;100407.28;4999021;28;20508;-84
2021/10/08 10:04:09;;;;;;;3.47;2.45;;;;;;;17.58;62.67;100409.72;4996640;28;20073;-81
2021/10/08 10:06:37;;;;;;;3.67;2.65;;;;;;;17.03;62.72;100401.53;4994744;28;20397;-86
2021/10/08 10:09:07;;;;;;;10.50;3.10;;;;;;;17.10;60.95;100401.94;4992052;28;20505;-87
2021/10/08 10:11:35;;;;;;;4.70;3.60;;;;;;;17.91;59.92;100401.03;4991695;28;20432;-85
2021/10/08 10:14:02;;;;;;;3.97;2.70;;;;;;;18.08;58.38;100401.50;5003127;28;20065;-87
2021/10/08 10:16:35;;;;;;;3.58;2.80;;;;;;;17.77;59.93;100406.53;4999854;28;20042;-87
2021/10/08 10:19:03;;;;;;;6.40;3.07;;;;;;;17.57;60.36;100407.19;4997350;28;20034;-88
2021/10/08 10:21:36;;;;;;;5.63;3.10;;;;;;;18.58;57.35;100406.22;4994722;28;20048;-81
2021/10/08 10:24:04;;;;;;;8.60;3.10;;;;;;;18.90;55.60;100407.22;4993517;28;20038;-92
2021/10/08 10:26:36;;;;;;;6.05;3.88;;;;;;;18.73;56.21;100412.09;5002744;28;20042;-89
2021/10/08 10:29:03;;;;;;;5.10;3.13;;;;;;;17.63;59.08;100414.63;4996486;28;20043;-90
2021/10/08 10:31:35;;;;;;;6.03;3.47;;;;;;;18.52;57.53;100403.22;4995145;28;20105;-88
2021/10/08 10:34:03;;;;;;;8.60;3.58;;;;;;;17.92;58.95;100412.41;4989221;28;20042;-90
2021/10/08 10:36:37;;;;;;;6.30;3.15;;;;;;;17.44;60.63;100418.69;4994464;28;20457;-90
2021/10/08 10:39:18;;;;;;;5.35;3.45;;;;;;;17.22;61.62;100416.81;5008157;28;20052;-87
2021/10/08 10:41:48;;;;;;;5.82;3.85;;;;;;;17.69;59.90;100414.19;4993407;28;20050;-89
2021/10/08 10:47:24;;;;;;;7.63;4.35;;;;;;;18.17;58.30;100417.44;4982032;28;20046;-89
2021/10/08 10:50:21;;;;;;;5.65;3.85;;;;;;;17.70;60.64;100419.31;4993103;28;20046;-91
2021/10/08 10:52:49;;;;;;;11.38;4.85;;;;;;;18.09;59.03;100409.28;4987370;28;20490;-90
2021/10/08 10:55:17;;;;;;;4.32;3.80;;;;;;;17.94;60.42;100421.88;4992106;28;20069;-88
2021/10/08 10:57:53;;;;;;;6.10;3.78;;;;;;;17.47;62.54;100420.22;4995091;28;20034;-91
2021/10/08 11:00:41;;;;;;;6.13;4.20;;;;;;;18.31;60.45;100405.78;4997173;28;20046;-89
2021/10/08 11:03:18;;;;;;;7.55;4.00;;;;;;;18.02;60.65;100410.75;4995758;28;20137;-90
2021/10/08 11:06:04;;;;;;;5.97;4.32;;;;;;;17.95;61.41;100413.03;4994579;28;20038;-89
2021/10/08 11:08:32;;;;;;;11.65;4.47;;;;;;;17.78;61.51;100421.38;5009556;28;20034;-88
2021/10/08 11:11:01;;;;;;;8.30;4.60;;;;;;;17.63;62.53;100411.97;4993407;28;20038;-89
2021/10/08 11:13:33;;;;;;;6.35;4.70;;;;;;;18.05;60.61;100423.66;4996431;28;20054;-91
2021/10/08 11:16:08;;;;;;;4.85;4.03;;;;;;;17.85;62.13;100416.50;4997344;28;20424;-94
2021/10/08 11:18:44;;;;;;;8.90;4.95;;;;;;;18.08;62.28;100418.16;4994911;28;20465;-90
2021/10/08 11:21:34;;;;;;;6.70;4.70;;;;;;;17.46;63.05;100419.38;4994515;28;20035;-89
2021/10/08 11:24:18;;;;;;;7.60;4.13;;;;;;;18.51;60.17;100410.31;4991150;28;20050;-86
2021/10/08 11:26:59;;;;;;;7.43;4.53;;;;;;;18.77;59.43;100412.69;4998495;28;20124;-84
2021/10/08 11:29:30;;;;;;;6.28;4.40;;;;;;;17.98;63.34;100409.28;4997810;28;20431;-86
2021/10/08 11:32:09;;;;;;;7.50;4.88;;;;;;;17.98;63.48;100404.84;4993431;28;20456;-87
2021/10/08 11:34:54;;;;;;;8.25;5.40;;;;;;;18.21;62.01;100408.31;4994075;28;20042;-82
2021/10/08 11:37:21;;;;;;;11.20;5.93;;;;;;;17.51;64.14;100403.22;4993544;28;20042;-89
2021/10/08 11:39:49;;;;;;;6.57;4.72;;;;;;;17.52;64.78;100397.84;4993931;28;20042;-89